PDT,Max TemperatureF,Mean TemperatureF,Min TemperatureF,Max Dew PointF,MeanDew PointF,Min DewpointF,Max Humidity, Mean Humidity, Min Humidity, Max Sea Level PressureIn, Mean Sea Level PressureIn, Min Sea Level PressureIn, Max VisibilityMiles, Mean VisibilityMiles, Min VisibilityMiles, Max Wind SpeedMPH, Mean Wind SpeedMPH, Max Gust SpeedMPH,PrecipitationIn, CloudCover, Events, WindDirDegrees
2012-3-1,75,62,50,41,35,26,61,41,16,30.13,30.04,29.94,10,10,10,30,10,41,0.00,0,,281
2012-3-2,69,56,42,38,17,-4,71,29,5,30.36,30.24,30.02,10,10,10,20,7,58,0.00,0,,338
2012-3-3,73,55,37,25,11,1,33,19,6,30.42,30.33,30.26,10,10,10,10,6,,0.00,0,,262
2012-3-4,82,62,42,27,19,10,47,21,9,30.25,30.15,30.04,10,10,10,9,5,,0.00,0,,275
2012-3-5,82,64,46,38,30,20,47,29,15,30.08,29.99,29.89,10,10,10,9,4,,0.00,3,,237
2012-3-6,81,64,46,48,36,24,71,40,14,29.89,29.77,29.64,10,9,3,39,14,50,0.00,1,,231
2012-3-7,64,54,44,34,19,3,48,28,9,30.18,30.05,29.84,10,10,10,29,15,37,0.00,1,,308
2012-3-8,75,57,39,28,21,13,41,26,12,30.34,30.27,30.18,10,10,10,9,6,,0.00,0,,270
2012-3-9,79,61,43,36,26,18,45,28,12,30.31,30.18,30.03,10,10,10,12,5,,0.00,0,,240
2012-3-10,77,60,42,44,34,21,70,38,20,30.08,30.00,29.93,10,10,10,10,7,,0.00,0,,162
2012-3-11,79,62,46,44,35,23,71,39,20,30.02,29.95,29.89,10,10,9,15,6,21,0.00,0,,177
2012-3-12,78,62,45,44,38,30,77,47,19,30.04,29.97,29.91,10,10,6,8,5,,0.00,0,,152
2012-3-13,79,62,44,48,40,28,100,54,23,30.03,29.97,29.91,10,8,0,10,4,,0.00,0,Fog,180
2012-3-14,81,66,53,45,36,28,53,34,17,30.07,30.02,29.97,10,10,10,12,6,,0.00,0,,225
2012-3-15,82,66,50,44,36,28,54,33,16,30.10,30.02,29.94,10,10,10,16,6,,0.05,0,,177
2012-3-16,88,72,61,49,43,36,43,35,25,29.98,29.90,29.82,10,10,8,25,13,33,0.00,1,,230
2012-3-17,73,63,53,50,44,35,60,48,38,29.81,29.76,29.68,10,10,5,39,23,47,0.00,4,Rain,250
2012-3-18,61,53,46,38,34,31,68,51,35,29.98,29.86,29.74,10,10,10,32,19,40,0.00,1,,249
2012-3-19,66,56,46,41,35,30,69,50,29,30.05,29.96,29.91,10,10,10,21,9,,0.00,4,,262
2012-3-20,71,54,37,43,35,26,89,51,22,30.21,30.11,29.59,10,10,10,6,3,,0.00,0,,189
2012-3-21,79,62,44,40,34,28,63,37,17,30.14,30.05,29.94,10,10,10,6,4,,0.00,0,,228
2012-3-22,86,58,32,48,39,29,100,39,19,29.94,29.89,29.81,10,10,10,10,5,,0.00,0,,186
2012-3-23,84,66,50,52,44,38,74,45,22,30.00,29.93,29.88,10,10,9,17,8,,0.00,0,,150
2012-3-24,82,67,53,52,46,40,80,49,24,29.95,29.89,29.83,10,10,6,9,4,,0.00,1,,143
2012-3-25,81,68,57,49,44,39,72,47,25,29.96,29.85,29.80,10,10,10,36,9,40,0.00,0,,253
2012-3-26,75,64,54,45,39,35,60,43,25,30.13,30.05,29.94,10,10,7,40,16,51,0.00,0,,275
2012-3-27,80,62,46,43,37,30,68,39,18,30.08,30.01,29.93,10,10,10,13,6,,0.00,0,,278
2012-3-28,81,64,46,44,32,17,43,29,10,30.03,29.97,29.91,10,10,10,10,5,,0.00,2,,318
2012-3-29,84,58,32,46,41,32,100,39,19,30.01,29.94,29.86,10,10,10,14,6,,0.00,1,,282
2012-3-30,87,70,53,57,45,38,64,41,23,29.97,29.90,29.83,10,10,10,14,5,,0.00,1,,190
2012-3-31,87,70,54,51,43,35,69,42,17,29.94,29.88,29.78,10,9,5,36,12,46,0.00,0,,215